createdAt,value
2023-09-12T00:01:59.377Z,65.91
2023-09-12T00:04:01.970Z,65.79
2023-09-12T00:06:06.059Z,66.13
2023-09-12T00:08:08.719Z,65.88
2023-09-12T00:10:11.611Z,65.91
2023-09-12T00:12:17.296Z,65.84
2023-09-12T00:14:20.280Z,65.65
2023-09-12T00:16:22.696Z,65.26
2023-09-12T00:18:25.242Z,65.50
2023-09-12T00:20:27.820Z,65.40
2023-09-12T00:22:29.968Z,65.38
2023-09-12T00:24:32.444Z,65.18
2023-09-12T00:26:34.776Z,65.04
2023-09-12T00:28:39.127Z,64.88
2023-09-12T00:30:41.417Z,64.93
2023-09-12T00:32:43.846Z,65.17
2023-09-12T00:34:46.302Z,64.93
2023-09-12T00:36:48.960Z,64.77
2023-09-12T00:38:53.759Z,64.93
2023-09-12T00:40:56.280Z,65.03
2023-09-12T00:42:59.893Z,64.91
2023-09-12T00:45:02.169Z,64.87
2023-09-12T00:47:05.281Z,64.59
2023-09-12T00:49:09.979Z,64.52
2023-09-12T00:51:12.634Z,64.65
2023-09-12T00:53:16.810Z,64.27
2023-09-12T00:55:19.339Z,64.36
2023-09-12T00:57:23.061Z,64.32
2023-09-12T00:59:27.141Z,64.04
2023-09-12T01:01:30.043Z,64.01
2023-09-12T01:03:33.837Z,64.06
2023-09-12T01:05:37.218Z,64.26
2023-09-12T01:07:40.831Z,63.98
2023-09-12T01:09:43.232Z,63.84
2023-09-12T01:11:46.355Z,63.66
2023-09-12T01:13:48.985Z,63.90
2023-09-12T01:15:51.655Z,63.58
2023-09-12T01:17:54.441Z,63.13
2023-09-12T01:19:58.475Z,63.13
2023-09-12T01:22:17.792Z,62.70
2023-09-12T01:24:40.322Z,62.74
2023-09-12T01:26:57.994Z,62.73
2023-09-12T01:29:02.561Z,62.57
2023-09-12T01:31:05.692Z,62.27
2023-09-12T01:33:08.891Z,62.52
2023-09-12T01:35:11.696Z,62.48
2023-09-12T01:37:14.456Z,62.81
2023-09-12T01:39:17.127Z,62.31
2023-09-12T01:41:20.584Z,62.03
2023-09-12T01:43:26.384Z,61.94
2023-09-12T01:45:29.530Z,61.92
2023-09-12T01:47:33.207Z,62.05
2023-09-12T01:49:37.506Z,61.81
2023-09-12T01:51:40.971Z,62.16
2023-09-12T01:53:47.010Z,61.98
2023-09-12T01:55:50.837Z,62.42
2023-09-12T01:57:53.726Z,62.08
2023-09-12T01:59:56.359Z,62.21
2023-09-12T02:01:59.124Z,61.93
2023-09-12T02:04:01.959Z,62.10
2023-09-12T02:06:05.020Z,61.87
2023-09-12T02:08:07.887Z,61.92
2023-09-12T02:10:11.499Z,61.74
2023-09-12T02:12:14.182Z,61.97
2023-09-12T02:14:16.903Z,61.65
2023-09-12T02:16:19.675Z,61.70
2023-09-12T02:18:22.358Z,61.89
2023-09-12T02:20:25.300Z,61.53
2023-09-12T02:22:28.066Z,61.61
2023-09-12T02:24:30.730Z,61.55
2023-09-12T02:26:37.638Z,61.73
2023-09-12T02:28:40.892Z,61.92
2023-09-12T02:30:44.106Z,62.04
2023-09-12T02:32:46.738Z,61.83
2023-09-12T02:34:49.199Z,61.96
2023-09-12T02:36:51.774Z,61.96
2023-09-12T02:38:54.540Z,61.74
2023-09-12T02:40:57.617Z,61.65
2023-09-12T02:43:00.248Z,61.77
2023-09-12T02:45:02.853Z,62.06
2023-09-12T02:47:08.097Z,62.29
2023-09-12T02:49:10.752Z,62.49
2023-09-12T02:51:13.852Z,62.58
2023-09-12T02:53:16.738Z,62.66
2023-09-12T02:55:19.586Z,61.78
2023-09-12T02:57:22.885Z,62.09
2023-09-12T02:59:25.267Z,62.02
2023-09-12T03:01:29.704Z,62.25
2023-09-12T03:03:32.196Z,62.44
2023-09-12T03:05:34.588Z,62.69
2023-09-12T03:07:37.046Z,62.75
2023-09-12T03:09:39.957Z,63.15
2023-09-12T03:11:42.437Z,63.48
2023-09-12T03:13:44.957Z,63.75
2023-09-12T03:15:47.232Z,64.10
2023-09-12T03:17:49.656Z,64.43
2023-09-12T03:19:53.113Z,64.82
2023-09-12T03:21:55.406Z,65.33
2023-09-12T03:23:57.698Z,65.59
2023-09-12T03:26:08.130Z,65.88
2023-09-12T03:28:10.537Z,66.42
2023-09-12T03:30:13.375Z,66.60
2023-09-12T03:32:15.932Z,66.83
2023-09-12T03:34:18.337Z,66.66
2023-09-12T03:36:20.895Z,67.27
2023-09-12T03:38:23.148Z,67.18
2023-09-12T03:40:25.668Z,67.03
2023-09-12T03:42:37.737Z,66.87
2023-09-12T03:44:44.397Z,67.16
2023-09-12T03:46:46.688Z,67.41
2023-09-12T03:48:49.219Z,67.12
2023-09-12T03:50:51.717Z,67.30
2023-09-12T03:52:53.981Z,67.35
2023-09-12T03:54:56.513Z,67.25
2023-09-12T03:56:58.920Z,66.96
2023-09-12T03:59:01.449Z,67.32
2023-09-12T04:01:03.846Z,67.30
2023-09-12T04:03:06.324Z,67.09
2023-09-12T04:05:09.487Z,67.24
2023-09-12T04:07:11.944Z,67.41
2023-09-12T04:09:14.453Z,67.36
2023-09-12T04:11:16.733Z,67.31
2023-09-12T04:13:19.084Z,67.59
2023-09-12T04:15:21.720Z,67.42
2023-09-12T04:17:24.160Z,67.39
2023-09-12T04:19:27.120Z,67.39
2023-09-12T04:21:29.432Z,67.64
2023-09-12T04:23:31.945Z,67.28
2023-09-12T04:25:35.063Z,67.52
2023-09-12T04:27:37.418Z,67.44
2023-09-12T04:29:40.822Z,67.54
2023-09-12T04:31:43.030Z,67.77
2023-09-12T04:33:45.402Z,67.84
2023-09-12T04:35:48.036Z,67.71
2023-09-12T04:37:50.298Z,67.88
2023-09-12T04:39:53.320Z,67.74
2023-09-12T04:41:55.717Z,67.79
2023-09-12T04:44:00.134Z,67.52
2023-09-12T04:46:02.684Z,67.24
2023-09-12T04:48:05.866Z,67.25
2023-09-12T04:50:08.665Z,67.21
2023-09-12T04:52:11.088Z,67.24
2023-09-12T04:54:13.374Z,67.11
2023-09-12T04:56:15.636Z,66.95
2023-09-12T04:58:17.932Z,66.98
2023-09-12T05:00:20.353Z,66.81
2023-09-12T05:02:23.068Z,66.47
2023-09-12T05:04:25.419Z,66.27
2023-09-12T05:06:27.825Z,65.98
2023-09-12T05:08:30.782Z,65.59
2023-09-12T05:10:33.057Z,65.80
2023-09-12T05:12:35.486Z,65.33
2023-09-12T05:14:37.977Z,65.43
2023-09-12T05:16:40.344Z,65.53
2023-09-12T05:18:42.943Z,65.89
2023-09-12T05:20:45.423Z,65.81
2023-09-12T05:22:47.835Z,65.77
2023-09-12T05:24:51.121Z,65.91
2023-09-12T05:26:53.694Z,65.87
2023-09-12T05:28:55.991Z,65.74
2023-09-12T05:30:58.339Z,65.84
2023-09-12T05:33:00.804Z,65.88
2023-09-12T05:35:19.222Z,65.59
2023-09-12T05:37:23.935Z,65.70
2023-09-12T05:39:26.369Z,65.63
2023-09-12T05:41:28.657Z,66.15
2023-09-12T05:43:30.905Z,65.98
2023-09-12T05:45:34.531Z,65.69
2023-09-12T05:47:36.841Z,65.56
2023-09-12T05:49:39.089Z,65.96
2023-09-12T05:51:41.699Z,65.85
2023-09-12T05:53:43.896Z,65.72
2023-09-12T05:55:46.290Z,65.76
2023-09-12T05:57:53.813Z,65.52
2023-09-12T05:59:56.124Z,65.69
2023-09-12T06:01:58.317Z,65.75
2023-09-12T06:04:00.716Z,65.75
2023-09-12T06:06:03.626Z,65.72
2023-09-12T06:08:06.447Z,65.62
2023-09-12T06:10:09.726Z,65.94
2023-09-12T06:12:12.011Z,65.85
2023-09-12T06:14:14.385Z,65.51
2023-09-12T06:16:16.922Z,65.44
2023-09-12T06:18:20.564Z,65.53
2023-09-12T06:20:23.506Z,65.56
2023-09-12T06:22:25.907Z,65.57
2023-09-12T06:24:28.298Z,65.54
2023-09-12T06:26:31.066Z,65.71
2023-09-12T06:28:33.498Z,65.83
2023-09-12T06:30:35.860Z,65.68
2023-09-12T06:32:38.594Z,65.75
2023-09-12T06:34:41.043Z,65.72
2023-09-12T06:36:46.441Z,65.63
2023-09-12T06:38:49.931Z,65.75
2023-09-12T06:40:53.089Z,65.20
2023-09-12T06:42:55.687Z,65.10
2023-09-12T06:44:58.095Z,65.24
2023-09-12T06:47:00.252Z,65.13
2023-09-12T06:49:03.308Z,65.46
2023-09-12T06:51:14.895Z,65.68
2023-09-12T06:53:19.370Z,65.96
2023-09-12T06:55:22.784Z,66.34
2023-09-12T06:57:26.390Z,66.14
2023-09-12T06:59:28.581Z,66.22
2023-09-12T07:01:31.185Z,65.61
2023-09-12T07:03:35.670Z,65.58
2023-09-12T07:05:40.118Z,65.93
2023-09-12T07:07:42.682Z,65.38
2023-09-12T07:09:45.478Z,65.25
2023-09-12T07:11:48.765Z,65.45
2023-09-12T07:13:53.076Z,65.38
2023-09-12T07:15:58.674Z,65.20
2023-09-12T07:18:01.433Z,65.71
2023-09-12T07:20:04.249Z,65.87
2023-09-12T07:22:06.656Z,65.93
2023-09-12T07:24:09.288Z,65.95
2023-09-12T07:26:16.386Z,65.60
2023-09-12T07:28:21.049Z,65.50
2023-09-12T07:30:23.749Z,65.80
2023-09-12T07:32:26.457Z,66.20
2023-09-12T07:34:28.995Z,66.84
2023-09-12T07:36:31.801Z,66.51
2023-09-12T07:38:36.738Z,66.01
2023-09-12T07:40:39.560Z,66.04
2023-09-12T07:42:41.858Z,66.08
2023-09-12T07:44:44.600Z,65.83
2023-09-12T07:46:46.928Z,66.15
2023-09-12T07:48:49.580Z,66.26
2023-09-12T07:50:53.148Z,66.79
2023-09-12T07:52:56.980Z,66.89
2023-09-12T07:55:02.430Z,67.22
2023-09-12T07:57:05.354Z,67.58
2023-09-12T07:59:07.646Z,67.98
2023-09-12T08:01:11.483Z,68.04
2023-09-12T08:03:14.140Z,68.63
2023-09-12T08:05:17.254Z,68.80
2023-09-12T08:07:19.831Z,69.10
2023-09-12T08:09:22.316Z,69.12
2023-09-12T08:11:24.821Z,69.39
2023-09-12T08:13:29.490Z,69.24
2023-09-12T08:15:32.313Z,69.09
2023-09-12T08:17:34.701Z,68.60
2023-09-12T08:19:37.077Z,68.47
2023-09-12T08:21:40.141Z,68.71
2023-09-12T08:23:42.894Z,68.42
2023-09-12T08:25:45.585Z,68.58
2023-09-12T08:27:48.308Z,67.72
2023-09-12T08:29:50.753Z,67.71
2023-09-12T08:31:55.105Z,67.87
2023-09-12T08:33:57.597Z,67.14
2023-09-12T08:35:59.990Z,67.23
2023-09-12T08:38:02.879Z,66.57
2023-09-12T08:40:09.250Z,66.53
2023-09-12T08:42:16.746Z,66.40
2023-09-12T08:44:21.021Z,66.20
2023-09-12T08:46:25.041Z,66.14
2023-09-12T08:48:31.056Z,66.31
2023-09-12T08:50:35.839Z,65.65
2023-09-12T08:52:40.642Z,66.00
2023-09-12T08:54:46.869Z,66.06
2023-09-12T08:56:49.463Z,65.79
2023-09-12T08:58:56.182Z,66.13
2023-09-12T09:00:58.918Z,65.95
2023-09-12T09:03:01.866Z,66.17
2023-09-12T09:05:07.555Z,65.97
2023-09-12T09:07:12.460Z,65.89
2023-09-12T09:09:15.779Z,66.25
2023-09-12T09:11:18.990Z,65.55
2023-09-12T09:13:21.877Z,64.90
2023-09-12T09:15:27.581Z,65.27
2023-09-12T09:19:46.610Z,65.42
2023-09-12T09:21:49.521Z,65.33
2023-09-12T09:23:54.648Z,64.18
2023-09-12T09:25:57.890Z,63.85
2023-09-12T09:28:01.258Z,63.73
2023-09-12T09:30:05.108Z,64.08
2023-09-12T09:32:19.766Z,63.64
2023-09-12T09:34:26.047Z,62.67
2023-09-12T09:36:29.867Z,62.69
2023-09-12T09:38:33.084Z,62.57
2023-09-12T09:40:37.519Z,62.31
2023-09-12T09:42:40.374Z,61.24
2023-09-12T09:44:43.748Z,60.73
2023-09-12T09:46:47.281Z,61.00
2023-09-12T09:48:54.369Z,60.52
2023-09-12T09:51:07.163Z,59.93
2023-09-12T09:53:11.974Z,60.17
2023-09-12T09:55:16.894Z,59.68
2023-09-12T09:57:20.394Z,58.61
2023-09-12T09:59:25.048Z,58.31
2023-09-12T10:01:30.923Z,58.48
2023-09-12T10:03:38.242Z,58.41
2023-09-12T10:05:43.062Z,57.51
2023-09-12T10:07:49.892Z,57.80
2023-09-12T10:09:53.427Z,57.53
2023-09-12T10:11:59.772Z,57.02
2023-09-12T10:14:05.494Z,56.43
2023-09-12T10:16:08.605Z,55.98
2023-09-12T10:18:29.545Z,56.29
2023-09-12T10:20:46.977Z,56.25
2023-09-12T10:23:02.138Z,56.12
2023-09-12T10:25:05.382Z,56.42
2023-09-12T10:27:08.335Z,55.77
2023-09-12T10:29:14.094Z,54.98
2023-09-12T10:31:18.543Z,54.55
2023-09-12T10:33:21.490Z,54.37
2023-09-12T10:35:24.376Z,54.58
2023-09-12T10:37:30.051Z,54.55
2023-09-12T10:39:34.164Z,53.96
2023-09-12T10:41:42.528Z,53.77
2023-09-12T10:43:49.027Z,54.09
2023-09-12T10:45:53.606Z,54.12
2023-09-12T10:47:56.209Z,54.22
2023-09-12T10:49:59.227Z,54.23
2023-09-12T10:52:01.922Z,53.56
2023-09-12T10:54:04.938Z,52.92
2023-09-12T10:56:11.712Z,52.42
2023-09-12T10:58:14.235Z,52.61
2023-09-12T11:00:17.103Z,52.92
2023-09-12T11:02:31.562Z,52.85
2023-09-12T11:04:35.905Z,52.98
2023-09-12T11:06:38.516Z,52.58
2023-09-12T11:08:42.873Z,52.65
2023-09-12T11:10:46.518Z,52.47
2023-09-12T11:12:52.496Z,52.91
2023-09-12T11:15:07.548Z,53.15
2023-09-12T11:17:10.567Z,52.62
2023-09-12T11:19:27.696Z,52.63
2023-09-12T11:21:39.838Z,52.29
2023-09-12T11:23:42.474Z,52.16
2023-09-12T11:25:45.238Z,52.50
2023-09-12T11:28:05.760Z,52.77
2023-09-12T11:30:09.117Z,52.67
2023-09-12T11:32:11.635Z,52.52
2023-09-12T11:34:16.686Z,52.78
2023-09-12T11:36:22.224Z,52.47
2023-09-12T11:38:30.698Z,52.44
2023-09-12T11:40:34.804Z,52.21
2023-09-12T11:42:41.548Z,50.91
2023-09-12T11:44:46.340Z,50.63
2023-09-12T11:46:51.539Z,50.52
2023-09-12T11:48:55.516Z,50.87
2023-09-12T11:50:59.530Z,50.81
2023-09-12T11:53:03.236Z,51.23
2023-09-12T11:55:06.357Z,51.42
2023-09-12T11:57:11.642Z,50.82
2023-09-12T11:59:14.670Z,51.01
2023-09-12T12:01:17.592Z,51.04
2023-09-12T12:03:23.110Z,50.60
2023-09-12T12:05:26.280Z,51.00
2023-09-12T12:07:28.685Z,49.50
2023-09-12T12:09:32.813Z,48.77
2023-09-12T12:11:35.305Z,48.54
2023-09-12T12:13:37.841Z,48.29
2023-09-12T12:15:40.652Z,48.37
2023-09-12T12:17:44.228Z,48.69
2023-09-12T12:19:47.926Z,48.55
2023-09-12T12:21:50.568Z,48.86
2023-09-12T12:24:04.585Z,49.72
2023-09-12T12:26:11.121Z,49.55
2023-09-12T12:28:13.710Z,49.55
2023-09-12T12:30:16.375Z,50.03
2023-09-12T12:32:21.267Z,50.14
2023-09-12T12:35:15.859Z,50.34
2023-09-12T12:36:55.677Z,50.05
2023-09-12T12:39:01.647Z,49.89
2023-09-12T12:41:03.996Z,50.11
2023-09-12T12:43:06.689Z,50.12
2023-09-12T12:45:18.886Z,50.25
2023-09-12T12:47:24.646Z,50.09
2023-09-12T12:49:27.285Z,50.41
2023-09-12T12:51:31.829Z,50.14
2023-09-12T12:53:52.057Z,50.35
2023-09-12T12:55:55.966Z,50.71
2023-09-12T12:57:58.476Z,50.91
2023-09-12T13:00:01.722Z,50.93
2023-09-12T13:02:04.757Z,50.63
2023-09-12T13:04:09.112Z,51.22
2023-09-12T13:06:17.084Z,50.91
2023-09-12T13:08:19.743Z,51.28
2023-09-12T13:10:22.856Z,51.23
2023-09-12T13:12:28.610Z,51.08
2023-09-12T13:14:36.811Z,51.01
2023-09-12T13:16:42.064Z,51.03
2023-09-12T13:18:45.144Z,50.94
2023-09-12T13:20:47.591Z,50.84
2023-09-12T13:22:50.001Z,50.78
2023-09-12T13:24:52.665Z,50.95
2023-09-12T13:26:55.434Z,51.08
2023-09-12T13:28:59.624Z,51.20
2023-09-12T13:31:02.415Z,51.21
2023-09-12T13:33:05.419Z,50.01
2023-09-12T13:35:09.590Z,51.10
2023-09-12T13:37:13.539Z,50.01
2023-09-12T13:39:16.284Z,50.22
2023-09-12T13:41:19.661Z,50.55
2023-09-12T13:43:21.920Z,50.80
2023-09-12T13:45:24.243Z,50.38
2023-09-12T13:47:27.470Z,50.44
2023-09-12T13:49:29.961Z,50.46
2023-09-12T13:51:32.531Z,50.78
2023-09-12T13:53:35.273Z,50.69
2023-09-12T13:56:02.102Z,50.66
2023-09-12T13:58:00.904Z,50.94
2023-09-12T14:00:03.619Z,50.81
2023-09-12T14:02:06.804Z,50.72
2023-09-12T14:04:10.035Z,50.91
2023-09-12T14:06:13.520Z,50.75
2023-09-12T14:08:16.180Z,50.86
2023-09-12T14:10:30.649Z,50.84
2023-09-12T14:12:37.732Z,51.10
2023-09-12T14:14:42.613Z,51.14
2023-09-12T14:16:48.963Z,51.02
2023-09-12T14:18:52.913Z,51.55
2023-09-12T14:20:56.941Z,51.63
2023-09-12T14:23:00.485Z,51.72
2023-09-12T14:25:03.687Z,51.83
2023-09-12T14:27:11.810Z,51.83
2023-09-12T14:29:20.714Z,51.85
2023-09-12T14:31:25.126Z,52.08
2023-09-12T14:33:27.937Z,52.27
2023-09-12T14:35:31.247Z,52.31
2023-09-12T14:37:34.087Z,52.36
2023-09-12T14:39:36.553Z,52.49
2023-09-12T14:41:39.380Z,52.58
2023-09-12T14:43:42.283Z,52.54
2023-09-12T14:45:45.090Z,52.60
2023-09-12T14:47:47.825Z,53.09
2023-09-12T14:49:52.053Z,53.66
2023-09-12T14:51:57.201Z,54.44
2023-09-12T14:53:59.673Z,54.40
2023-09-12T14:56:02.568Z,54.69
2023-09-12T14:58:05.298Z,54.96
2023-09-12T15:00:08.821Z,55.13
2023-09-12T15:02:11.454Z,55.28
2023-09-12T15:04:14.197Z,55.05
2023-09-12T15:06:17.273Z,55.15
2023-09-12T15:08:20.797Z,54.98
2023-09-12T15:10:24.156Z,55.20
2023-09-12T15:12:27.591Z,55.21
2023-09-12T15:14:33.049Z,55.45
2023-09-12T15:16:36.381Z,55.31
2023-09-12T15:18:42.045Z,55.60
2023-09-12T15:20:44.699Z,55.14
2023-09-12T15:22:47.096Z,54.42
2023-09-12T15:24:49.916Z,54.15
2023-09-12T15:26:52.631Z,53.45
2023-09-12T15:28:55.140Z,53.31
2023-09-12T15:30:57.853Z,52.67
2023-09-12T15:33:00.607Z,52.09
2023-09-12T15:35:04.305Z,51.83
2023-09-12T15:39:18.920Z,51.87
2023-09-12T15:41:21.790Z,50.16
2023-09-12T15:43:25.743Z,49.18
2023-09-12T15:45:46.479Z,49.43
2023-09-12T15:47:52.768Z,49.90
2023-09-12T15:49:55.877Z,51.70
2023-09-12T15:51:58.971Z,51.96
2023-09-12T15:54:01.291Z,52.40
2023-09-12T15:56:03.825Z,52.50
2023-09-12T15:58:06.620Z,53.02
2023-09-12T16:00:12.598Z,52.51
2023-09-12T16:02:15.492Z,52.70
2023-09-12T16:04:18.512Z,52.67
2023-09-12T16:06:22.076Z,52.82
2023-09-12T16:08:24.743Z,53.54
2023-09-12T16:10:27.470Z,53.69
2023-09-12T16:12:30.159Z,53.97
2023-09-12T16:14:32.751Z,54.58
2023-09-12T16:16:35.172Z,55.19
2023-09-12T16:18:39.656Z,56.44
2023-09-12T16:20:42.353Z,57.83
2023-09-12T16:22:45.232Z,57.21
2023-09-12T16:24:48.848Z,57.95
2023-09-12T16:26:51.722Z,58.82
2023-09-12T16:28:54.490Z,59.27
2023-09-12T16:30:57.322Z,59.74
2023-09-12T16:33:00.541Z,60.37
2023-09-12T16:35:03.549Z,61.08
2023-09-12T16:39:09.537Z,61.60
2023-09-12T16:41:12.263Z,61.94
2023-09-12T16:43:14.906Z,62.29
2023-09-12T16:45:17.408Z,62.39
2023-09-12T16:47:20.415Z,62.18
2023-09-12T16:49:23.333Z,62.32
2023-09-12T16:51:26.381Z,62.36
2023-09-12T16:53:29.599Z,62.61
2023-09-12T16:55:32.712Z,62.69
2023-09-12T16:57:35.596Z,62.91
2023-09-12T16:59:39.746Z,61.94
2023-09-12T17:01:42.731Z,61.76
2023-09-12T17:03:47.058Z,61.60
2023-09-12T17:05:51.038Z,62.46
2023-09-12T17:07:54.181Z,63.14
2023-09-12T17:09:57.125Z,63.22
2023-09-12T17:12:00.174Z,63.52
2023-09-12T17:14:03.041Z,64.07
2023-09-12T17:16:06.259Z,64.05
2023-09-12T17:18:09.397Z,63.88
2023-09-12T17:20:12.290Z,63.92
2023-09-12T17:22:15.297Z,63.64
2023-09-12T17:24:17.820Z,63.98
2023-09-12T17:26:21.077Z,63.22
2023-09-12T17:28:24.062Z,63.65
2023-09-12T17:30:28.353Z,63.87
2023-09-12T17:32:32.860Z,64.10
2023-09-12T17:34:45.208Z,64.44
2023-09-12T17:36:48.384Z,65.06
2023-09-12T17:38:51.449Z,65.85
2023-09-12T17:40:54.446Z,70.04
2023-09-12T17:43:00.857Z,70.98
2023-09-12T17:45:04.994Z,71.96
2023-09-12T17:47:08.335Z,72.31
2023-09-12T17:49:12.330Z,72.21
2023-09-12T17:51:15.568Z,71.83
2023-09-12T17:53:18.575Z,72.98
2023-09-12T17:55:23.738Z,74.15
2023-09-12T17:57:27.033Z,75.69
2023-09-12T17:59:30.079Z,76.49
2023-09-12T18:01:32.975Z,77.21
2023-09-12T18:03:35.970Z,78.04
2023-09-12T18:05:38.870Z,78.94
2023-09-12T18:07:41.499Z,79.66
2023-09-12T18:09:44.029Z,80.19
2023-09-12T18:11:47.511Z,80.44
2023-09-12T18:13:50.496Z,81.54
2023-09-12T18:15:53.567Z,81.56
2023-09-12T18:17:56.671Z,81.98
2023-09-12T18:19:59.976Z,82.65
2023-09-12T18:22:02.831Z,82.86
2023-09-12T18:24:06.166Z,82.92
2023-09-12T18:26:09.235Z,83.72
2023-09-12T18:28:11.631Z,83.65
2023-09-12T18:30:14.398Z,83.94
2023-09-12T18:32:19.685Z,83.75
2023-09-12T18:34:22.818Z,83.91
2023-09-12T18:36:27.895Z,84.26
2023-09-12T18:38:30.687Z,84.25
2023-09-12T18:40:33.781Z,84.67
2023-09-12T18:42:36.624Z,84.84
2023-09-12T18:44:39.303Z,85.54
2023-09-12T18:46:42.280Z,85.82
2023-09-12T18:48:44.606Z,85.40
2023-09-12T18:50:49.502Z,85.53
2023-09-12T18:52:55.869Z,85.51
2023-09-12T18:54:59.008Z,86.21
2023-09-12T18:57:09.680Z,85.69
2023-09-12T18:59:11.727Z,85.67
2023-09-12T19:01:14.550Z,85.69
2023-09-12T19:03:17.177Z,86.48
2023-09-12T19:05:20.273Z,86.40
2023-09-12T19:07:24.284Z,85.01
2023-09-12T19:09:27.575Z,83.46
2023-09-12T19:11:30.041Z,84.73
2023-09-12T19:13:32.483Z,82.65
2023-09-12T19:15:37.350Z,82.30
2023-09-12T19:17:40.463Z,80.00
2023-09-12T19:19:43.090Z,80.21
2023-09-12T19:21:45.648Z,80.27
2023-09-12T19:23:48.208Z,79.57
2023-09-12T19:25:50.984Z,80.30
2023-09-12T19:27:53.778Z,80.16
2023-09-12T19:29:57.309Z,78.97
2023-09-12T19:31:59.840Z,79.25
2023-09-12T19:34:04.916Z,78.95
2023-09-12T19:36:09.218Z,79.13
2023-09-12T19:38:13.674Z,79.18
2023-09-12T19:40:17.546Z,79.47
2023-09-12T19:42:19.908Z,78.89
2023-09-12T19:44:23.127Z,79.05
2023-09-12T19:46:25.560Z,78.03
2023-09-12T19:48:28.004Z,77.67
2023-09-12T19:50:32.899Z,78.27
2023-09-12T19:52:35.400Z,77.82
2023-09-12T19:54:37.824Z,77.98
2023-09-12T19:56:40.671Z,77.42
2023-09-12T19:58:42.974Z,78.47
2023-09-12T20:00:45.656Z,78.64
2023-09-12T20:02:51.054Z,78.45
2023-09-12T20:04:53.668Z,78.11
2023-09-12T20:06:57.099Z,77.74
2023-09-12T20:08:59.669Z,78.19
2023-09-12T20:11:02.183Z,78.83
2023-09-12T20:13:04.966Z,79.32
2023-09-12T20:15:08.190Z,79.42
2023-09-12T20:17:10.584Z,78.65
2023-09-12T20:19:14.137Z,79.77
2023-09-12T20:21:16.789Z,79.30
2023-09-12T20:23:19.330Z,78.66
2023-09-12T20:25:22.964Z,78.29
2023-09-12T20:27:25.470Z,78.56
2023-09-12T20:29:28.109Z,78.66
2023-09-12T20:31:32.000Z,78.14
2023-09-12T20:33:34.954Z,79.09
2023-09-12T20:35:38.195Z,79.16
2023-09-12T20:37:40.931Z,78.62
2023-09-12T20:39:45.055Z,77.88
2023-09-12T20:41:48.787Z,78.67
2023-09-12T20:43:51.288Z,78.81
2023-09-12T20:45:54.728Z,78.26
2023-09-12T20:47:57.201Z,78.30
2023-09-12T20:50:01.012Z,78.06
2023-09-12T20:52:03.489Z,77.23
2023-09-12T20:54:09.790Z,77.26
2023-09-12T20:56:14.693Z,76.98
2023-09-12T20:58:18.797Z,76.68
2023-09-12T21:00:22.493Z,77.39
2023-09-12T21:02:25.209Z,78.31
2023-09-12T21:04:28.423Z,77.85
2023-09-12T21:06:30.998Z,77.66
2023-09-12T21:08:33.421Z,77.01
2023-09-12T21:10:36.052Z,76.90
2023-09-12T21:12:38.496Z,77.00
2023-09-12T21:14:40.885Z,77.82
2023-09-12T21:16:43.464Z,76.63
2023-09-12T21:18:46.183Z,76.42
2023-09-12T21:20:49.990Z,75.42
2023-09-12T21:22:52.535Z,75.25
2023-09-12T21:24:55.056Z,75.45
2023-09-12T21:26:57.566Z,76.05
2023-09-12T21:28:59.837Z,76.14
2023-09-12T21:31:02.212Z,75.41
2023-09-12T21:33:05.194Z,75.48
2023-09-12T21:35:16.897Z,75.88
2023-09-12T21:37:19.161Z,76.02
2023-09-12T21:39:22.053Z,75.74
2023-09-12T21:41:24.331Z,75.33
2023-09-12T21:43:27.339Z,75.33
2023-09-12T21:45:29.650Z,75.21
2023-09-12T21:47:32.198Z,75.33
2023-09-12T21:49:34.529Z,75.15
2023-09-12T21:51:36.980Z,75.76
2023-09-12T21:53:39.356Z,75.67
2023-09-12T21:55:41.747Z,74.75
2023-09-12T21:57:44.025Z,74.17
2023-09-12T21:59:46.428Z,73.83
2023-09-12T22:01:48.936Z,73.85
2023-09-12T22:03:51.330Z,74.05
2023-09-12T22:05:53.756Z,74.18
2023-09-12T22:07:56.017Z,73.96
2023-09-12T22:09:58.711Z,73.86
2023-09-12T22:12:01.182Z,73.97
2023-09-12T22:14:03.464Z,74.30
2023-09-12T22:16:06.049Z,75.13
2023-09-12T22:18:10.053Z,74.73
2023-09-12T22:20:14.027Z,74.31
2023-09-12T22:22:16.493Z,74.25
2023-09-12T22:24:18.716Z,74.01
2023-09-12T22:26:20.995Z,74.12
2023-09-12T22:28:23.384Z,74.21
2023-09-12T22:30:25.571Z,73.88
2023-09-12T22:32:27.949Z,73.77
2023-09-12T22:34:30.250Z,73.32
2023-09-12T22:36:32.661Z,72.67
2023-09-12T22:38:35.334Z,72.69
2023-09-12T22:40:37.589Z,73.09
2023-09-12T22:42:39.889Z,73.26
2023-09-12T22:44:42.366Z,71.85
2023-09-12T22:46:44.583Z,72.79
2023-09-12T22:48:46.867Z,73.04
2023-09-12T22:50:49.337Z,73.16
2023-09-12T22:52:51.753Z,73.11
2023-09-12T22:54:54.059Z,73.13
2023-09-12T22:56:56.535Z,72.73
2023-09-12T22:59:00.482Z,72.23
2023-09-12T23:01:04.101Z,72.18
2023-09-12T23:03:07.440Z,72.09
2023-09-12T23:05:10.292Z,72.61
2023-09-12T23:07:13.164Z,72.79
2023-09-12T23:09:15.421Z,72.07
2023-09-12T23:11:18.174Z,72.28
2023-09-12T23:13:21.278Z,72.00
2023-09-12T23:15:25.596Z,72.76
2023-09-12T23:17:27.945Z,72.62
2023-09-12T23:19:30.406Z,71.92
2023-09-12T23:21:32.686Z,72.05
2023-09-12T23:23:34.976Z,72.35
2023-09-12T23:25:37.265Z,72.56
2023-09-12T23:27:40.542Z,72.70
2023-09-12T23:29:43.142Z,71.91
2023-09-12T23:31:45.647Z,72.04
2023-09-12T23:33:48.200Z,71.80
2023-09-12T23:35:50.710Z,72.70
2023-09-12T23:37:53.110Z,72.17
2023-09-12T23:39:57.598Z,71.80
2023-09-12T23:41:59.977Z,71.68
2023-09-12T23:44:02.473Z,71.76
2023-09-12T23:46:05.375Z,71.67
2023-09-12T23:48:07.900Z,71.41
2023-09-12T23:50:11.480Z,71.85
2023-09-12T23:52:14.298Z,71.79
2023-09-12T23:54:17.485Z,71.60
2023-09-12T23:56:19.765Z,71.13
2023-09-12T23:58:22.340Z,71.37
